sensor_id;sensor_type;location;lat;lon;timestamp;P1;durP1;ratioP1;P2;durP2;ratioP2
27213;SDS011;14723;55.814;37.460;2022-08-20T00:00:54;26.88;;;15.02;;
27213;SDS011;14723;55.814;37.460;2022-08-20T00:04:03;29.17;;;17.73;;
27213;SDS011;14723;55.814;37.460;2022-08-20T00:07:12;27.77;;;16.10;;
27213;SDS011;14723;55.814;37.460;2022-08-20T00:10:17;31.23;;;17.88;;
27213;SDS011;14723;55.814;37.460;2022-08-20T00:13:24;34.00;;;17.60;;
27213;SDS011;14723;55.814;37.460;2022-08-20T00:16:32;29.13;;;18.90;;
27213;SDS011;14723;55.814;37.460;2022-08-20T00:19:37;28.17;;;18.25;;
27213;SDS011;14723;55.814;37.460;2022-08-20T00:22:45;29.05;;;18.83;;
27213;SDS011;14723;55.814;37.460;2022-08-20T00:25:51;32.67;;;17.75;;
27213;SDS011;14723;55.814;37.460;2022-08-20T00:28:56;30.17;;;17.15;;
27213;SDS011;14723;55.814;37.460;2022-08-20T00:32:01;27.55;;;17.42;;
27213;SDS011;14723;55.814;37.460;2022-08-20T00:35:07;30.23;;;17.58;;
27213;SDS011;14723;55.814;37.460;2022-08-20T00:38:16;26.75;;;17.55;;
27213;SDS011;14723;55.814;37.460;2022-08-20T00:41:23;39.05;;;19.75;;
27213;SDS011;14723;55.814;37.460;2022-08-20T00:44:29;31.88;;;18.88;;
27213;SDS011;14723;55.814;37.460;2022-08-20T00:47:34;29.83;;;18.17;;
27213;SDS011;14723;55.814;37.460;2022-08-20T00:50:52;27.17;;;18.45;;
27213;SDS011;14723;55.814;37.460;2022-08-20T00:54:01;30.77;;;19.75;;
27213;SDS011;14723;55.814;37.460;2022-08-20T00:57:07;46.03;;;21.17;;
27213;SDS011;14723;55.814;37.460;2022-08-20T01:00:15;35.97;;;21.00;;
27213;SDS011;14723;55.814;37.460;2022-08-20T01:03:21;34.08;;;21.90;;
27213;SDS011;14723;55.814;37.460;2022-08-20T01:06:26;36.78;;;21.80;;
27213;SDS011;14723;55.814;37.460;2022-08-20T01:09:34;41.70;;;22.90;;
27213;SDS011;14723;55.814;37.460;2022-08-20T01:13:00;39.40;;;22.75;;
27213;SDS011;14723;55.814;37.460;2022-08-20T01:16:10;31.40;;;21.73;;
27213;SDS011;14723;55.814;37.460;2022-08-20T01:19:18;38.60;;;22.77;;
27213;SDS011;14723;55.814;37.460;2022-08-20T01:22:33;36.95;;;22.95;;
27213;SDS011;14723;55.814;37.460;2022-08-20T01:25:55;41.92;;;22.45;;
27213;SDS011;14723;55.814;37.460;2022-08-20T01:29:03;34.05;;;23.20;;
27213;SDS011;14723;55.814;37.460;2022-08-20T01:32:08;35.67;;;23.30;;
27213;SDS011;14723;55.814;37.460;2022-08-20T01:35:17;36.85;;;23.55;;
27213;SDS011;14723;55.814;37.460;2022-08-20T01:38:23;38.38;;;22.45;;
27213;SDS011;14723;55.814;37.460;2022-08-20T01:41:34;35.53;;;21.17;;
27213;SDS011;14723;55.814;37.460;2022-08-20T01:44:45;33.75;;;21.05;;
27213;SDS011;14723;55.814;37.460;2022-08-20T01:47:50;32.00;;;19.88;;
27213;SDS011;14723;55.814;37.460;2022-08-20T01:50:59;31.75;;;20.48;;
27213;SDS011;14723;55.814;37.460;2022-08-20T01:54:05;40.60;;;20.48;;
27213;SDS011;14723;55.814;37.460;2022-08-20T01:57:14;36.33;;;19.77;;
27213;SDS011;14723;55.814;37.460;2022-08-20T02:00:20;31.73;;;18.52;;
27213;SDS011;14723;55.814;37.460;2022-08-20T02:03:26;27.67;;;17.92;;
27213;SDS011;14723;55.814;37.460;2022-08-20T02:06:39;28.42;;;17.85;;
27213;SDS011;14723;55.814;37.460;2022-08-20T02:09:58;24.80;;;16.23;;
27213;SDS011;14723;55.814;37.460;2022-08-20T02:13:06;26.20;;;17.10;;
27213;SDS011;14723;55.814;37.460;2022-08-20T02:16:33;30.40;;;16.17;;
27213;SDS011;14723;55.814;37.460;2022-08-20T02:19:39;32.30;;;15.57;;
27213;SDS011;14723;55.814;37.460;2022-08-20T02:22:46;31.63;;;16.70;;
27213;SDS011;14723;55.814;37.460;2022-08-20T02:25:52;28.42;;;16.42;;
27213;SDS011;14723;55.814;37.460;2022-08-20T02:29:00;28.00;;;15.55;;
27213;SDS011;14723;55.814;37.460;2022-08-20T02:32:06;30.42;;;15.43;;
27213;SDS011;14723;55.814;37.460;2022-08-20T02:35:31;26.70;;;14.93;;
27213;SDS011;14723;55.814;37.460;2022-08-20T02:38:36;23.10;;;14.70;;
27213;SDS011;14723;55.814;37.460;2022-08-20T02:41:42;26.20;;;15.00;;
27213;SDS011;14723;55.814;37.460;2022-08-20T02:44:50;28.35;;;16.02;;
27213;SDS011;14723;55.814;37.460;2022-08-20T02:47:55;30.52;;;14.80;;
27213;SDS011;14723;55.814;37.460;2022-08-20T02:51:02;31.50;;;15.00;;
27213;SDS011;14723;55.814;37.460;2022-08-20T02:54:08;25.60;;;13.55;;
27213;SDS011;14723;55.814;37.460;2022-08-20T02:57:13;22.70;;;14.60;;
27213;SDS011;14723;55.814;37.460;2022-08-20T03:00:23;23.63;;;14.00;;
27213;SDS011;14723;55.814;37.460;2022-08-20T03:03:28;25.55;;;14.73;;
27213;SDS011;14723;55.814;37.460;2022-08-20T03:06:34;22.88;;;13.25;;
27213;SDS011;14723;55.814;37.460;2022-08-20T03:09:39;24.38;;;13.82;;
27213;SDS011;14723;55.814;37.460;2022-08-20T03:12:45;25.73;;;13.82;;
27213;SDS011;14723;55.814;37.460;2022-08-20T03:15:54;27.85;;;16.58;;
27213;SDS011;14723;55.814;37.460;2022-08-20T03:18:59;26.90;;;15.02;;
27213;SDS011;14723;55.814;37.460;2022-08-20T03:22:05;24.50;;;16.23;;
27213;SDS011;14723;55.814;37.460;2022-08-20T03:25:10;32.97;;;20.48;;
27213;SDS011;14723;55.814;37.460;2022-08-20T03:28:15;47.50;;;26.15;;
27213;SDS011;14723;55.814;37.460;2022-08-20T03:31:23;53.83;;;31.08;;
27213;SDS011;14723;55.814;37.460;2022-08-20T03:34:28;48.15;;;33.22;;
27213;SDS011;14723;55.814;37.460;2022-08-20T03:37:34;54.15;;;34.10;;
27213;SDS011;14723;55.814;37.460;2022-08-20T03:40:44;58.33;;;38.40;;
27213;SDS011;14723;55.814;37.460;2022-08-20T03:43:49;62.45;;;40.08;;
27213;SDS011;14723;55.814;37.460;2022-08-20T03:46:58;62.80;;;39.92;;
27213;SDS011;14723;55.814;37.460;2022-08-20T03:50:04;62.15;;;39.88;;
27213;SDS011;14723;55.814;37.460;2022-08-20T03:53:15;63.70;;;41.13;;
27213;SDS011;14723;55.814;37.460;2022-08-20T03:56:20;63.40;;;37.47;;
27213;SDS011;14723;55.814;37.460;2022-08-20T03:59:25;60.20;;;36.63;;
27213;SDS011;14723;55.814;37.460;2022-08-20T04:02:36;54.28;;;32.70;;
27213;SDS011;14723;55.814;37.460;2022-08-20T04:05:42;51.28;;;30.98;;
27213;SDS011;14723;55.814;37.460;2022-08-20T04:08:47;55.45;;;30.98;;
27213;SDS011;14723;55.814;37.460;2022-08-20T04:11:54;48.03;;;30.77;;
27213;SDS011;14723;55.814;37.460;2022-08-20T04:15:01;42.50;;;29.05;;
27213;SDS011;14723;55.814;37.460;2022-08-20T04:18:11;44.80;;;24.05;;
27213;SDS011;14723;55.814;37.460;2022-08-20T04:21:21;35.55;;;21.50;;
27213;SDS011;14723;55.814;37.460;2022-08-20T04:24:30;34.00;;;21.98;;
27213;SDS011;14723;55.814;37.460;2022-08-20T04:27:35;38.00;;;21.92;;
27213;SDS011;14723;55.814;37.460;2022-08-20T04:30:41;33.65;;;20.90;;
27213;SDS011;14723;55.814;37.460;2022-08-20T04:33:55;30.23;;;17.80;;
27213;SDS011;14723;55.814;37.460;2022-08-20T04:37:00;29.35;;;16.88;;
27213;SDS011;14723;55.814;37.460;2022-08-20T04:40:07;32.10;;;16.85;;
27213;SDS011;14723;55.814;37.460;2022-08-20T04:43:25;25.15;;;14.68;;
27213;SDS011;14723;55.814;37.460;2022-08-20T04:46:30;32.22;;;14.18;;
27213;SDS011;14723;55.814;37.460;2022-08-20T04:49:39;29.58;;;14.13;;
27213;SDS011;14723;55.814;37.460;2022-08-20T04:52:44;26.17;;;12.30;;
27213;SDS011;14723;55.814;37.460;2022-08-20T04:55:50;22.13;;;12.20;;
27213;SDS011;14723;55.814;37.460;2022-08-20T04:58:55;24.65;;;11.80;;
27213;SDS011;14723;55.814;37.460;2022-08-20T05:02:01;21.48;;;11.38;;
27213;SDS011;14723;55.814;37.460;2022-08-20T05:05:09;23.95;;;10.88;;
27213;SDS011;14723;55.814;37.460;2022-08-20T05:08:15;25.58;;;11.13;;
27213;SDS011;14723;55.814;37.460;2022-08-20T05:11:21;14.07;;;9.57;;
27213;SDS011;14723;55.814;37.460;2022-08-20T05:14:37;17.17;;;9.23;;
27213;SDS011;14723;55.814;37.460;2022-08-20T05:17:42;25.13;;;9.52;;
27213;SDS011;14723;55.814;37.460;2022-08-20T05:20:50;26.10;;;10.05;;
27213;SDS011;14723;55.814;37.460;2022-08-20T05:23:56;19.98;;;10.35;;
27213;SDS011;14723;55.814;37.460;2022-08-20T05:27:04;19.80;;;9.43;;
27213;SDS011;14723;55.814;37.460;2022-08-20T05:30:25;22.83;;;9.82;;
27213;SDS011;14723;55.814;37.460;2022-08-20T05:33:36;28.60;;;10.73;;
27213;SDS011;14723;55.814;37.460;2022-08-20T05:36:46;61.17;;;13.13;;
27213;SDS011;14723;55.814;37.460;2022-08-20T05:39:54;47.17;;;12.23;;
27213;SDS011;14723;55.814;37.460;2022-08-20T05:42:59;48.30;;;12.60;;
27213;SDS011;14723;55.814;37.460;2022-08-20T05:46:05;39.63;;;10.35;;
27213;SDS011;14723;55.814;37.460;2022-08-20T05:49:12;27.05;;;10.05;;
27213;SDS011;14723;55.814;37.460;2022-08-20T05:52:19;24.95;;;9.30;;
27213;SDS011;14723;55.814;37.460;2022-08-20T05:55:25;21.77;;;9.52;;
27213;SDS011;14723;55.814;37.460;2022-08-20T05:58:30;21.35;;;9.40;;
27213;SDS011;14723;55.814;37.460;2022-08-20T06:01:36;16.92;;;8.25;;
27213;SDS011;14723;55.814;37.460;2022-08-20T06:04:42;21.60;;;8.85;;
27213;SDS011;14723;55.814;37.460;2022-08-20T06:07:47;28.85;;;8.77;;
27213;SDS011;14723;55.814;37.460;2022-08-20T06:10:58;21.77;;;9.45;;
27213;SDS011;14723;55.814;37.460;2022-08-20T06:14:03;20.85;;;9.45;;
27213;SDS011;14723;55.814;37.460;2022-08-20T06:17:09;21.95;;;9.25;;
27213;SDS011;14723;55.814;37.460;2022-08-20T06:20:16;17.60;;;8.40;;
27213;SDS011;14723;55.814;37.460;2022-08-20T06:23:24;19.92;;;8.02;;
27213;SDS011;14723;55.814;37.460;2022-08-20T06:26:53;15.77;;;7.95;;
27213;SDS011;14723;55.814;37.460;2022-08-20T06:29:58;20.77;;;8.27;;
27213;SDS011;14723;55.814;37.460;2022-08-20T06:33:05;20.67;;;7.70;;
27213;SDS011;14723;55.814;37.460;2022-08-20T06:36:11;23.33;;;7.80;;
27213;SDS011;14723;55.814;37.460;2022-08-20T06:39:22;19.67;;;7.90;;
27213;SDS011;14723;55.814;37.460;2022-08-20T06:42:27;14.85;;;7.13;;
27213;SDS011;14723;55.814;37.460;2022-08-20T06:45:32;14.45;;;7.63;;
27213;SDS011;14723;55.814;37.460;2022-08-20T06:48:38;13.60;;;7.43;;
27213;SDS011;14723;55.814;37.460;2022-08-20T06:51:44;15.65;;;7.53;;
27213;SDS011;14723;55.814;37.460;2022-08-20T06:54:55;15.05;;;7.10;;
27213;SDS011;14723;55.814;37.460;2022-08-20T06:58:01;13.57;;;6.50;;
27213;SDS011;14723;55.814;37.460;2022-08-20T07:01:06;22.75;;;7.20;;
27213;SDS011;14723;55.814;37.460;2022-08-20T07:04:12;14.85;;;5.97;;
27213;SDS011;14723;55.814;37.460;2022-08-20T07:07:17;20.92;;;6.68;;
27213;SDS011;14723;55.814;37.460;2022-08-20T07:10:26;25.38;;;6.93;;
27213;SDS011;14723;55.814;37.460;2022-08-20T07:13:31;23.35;;;6.25;;
27213;SDS011;14723;55.814;37.460;2022-08-20T07:16:37;27.30;;;6.65;;
27213;SDS011;14723;55.814;37.460;2022-08-20T07:19:42;15.45;;;6.25;;
27213;SDS011;14723;55.814;37.460;2022-08-20T07:22:48;14.88;;;5.75;;
27213;SDS011;14723;55.814;37.460;2022-08-20T07:25:56;14.25;;;5.22;;
27213;SDS011;14723;55.814;37.460;2022-08-20T07:29:01;15.60;;;6.15;;
27213;SDS011;14723;55.814;37.460;2022-08-20T07:32:06;14.82;;;5.63;;
27213;SDS011;14723;55.814;37.460;2022-08-20T07:35:29;11.63;;;5.15;;
27213;SDS011;14723;55.814;37.460;2022-08-20T07:38:35;15.02;;;5.65;;
27213;SDS011;14723;55.814;37.460;2022-08-20T07:41:43;26.35;;;6.60;;
27213;SDS011;14723;55.814;37.460;2022-08-20T07:45:04;19.27;;;5.05;;
27213;SDS011;14723;55.814;37.460;2022-08-20T07:48:12;13.05;;;5.28;;
27213;SDS011;14723;55.814;37.460;2022-08-20T07:51:32;18.27;;;4.85;;
27213;SDS011;14723;55.814;37.460;2022-08-20T07:54:37;18.45;;;5.57;;
27213;SDS011;14723;55.814;37.460;2022-08-20T07:57:46;11.45;;;5.18;;
27213;SDS011;14723;55.814;37.460;2022-08-20T08:03:56;20.00;;;4.72;;
27213;SDS011;14723;55.814;37.460;2022-08-20T08:07:01;11.27;;;4.00;;
27213;SDS011;14723;55.814;37.460;2022-08-20T08:10:08;10.93;;;4.50;;
27213;SDS011;14723;55.814;37.460;2022-08-20T08:13:16;11.38;;;4.75;;
27213;SDS011;14723;55.814;37.460;2022-08-20T08:16:21;14.05;;;5.22;;
27213;SDS011;14723;55.814;37.460;2022-08-20T08:19:27;18.10;;;5.45;;
27213;SDS011;14723;55.814;37.460;2022-08-20T08:22:39;10.27;;;4.05;;
27213;SDS011;14723;55.814;37.460;2022-08-20T08:25:45;16.73;;;5.03;;
27213;SDS011;14723;55.814;37.460;2022-08-20T08:28:55;14.30;;;4.90;;
27213;SDS011;14723;55.814;37.460;2022-08-20T08:32:00;12.95;;;4.45;;
27213;SDS011;14723;55.814;37.460;2022-08-20T08:35:06;13.82;;;4.78;;
27213;SDS011;14723;55.814;37.460;2022-08-20T08:38:11;8.43;;;4.00;;
27213;SDS011;14723;55.814;37.460;2022-08-20T08:41:18;7.25;;;4.30;;
27213;SDS011;14723;55.814;37.460;2022-08-20T08:44:28;12.32;;;4.45;;
27213;SDS011;14723;55.814;37.460;2022-08-20T08:47:35;18.42;;;4.90;;
27213;SDS011;14723;55.814;37.460;2022-08-20T08:50:43;15.87;;;4.70;;
27213;SDS011;14723;55.814;37.460;2022-08-20T08:53:55;9.40;;;4.78;;
27213;SDS011;14723;55.814;37.460;2022-08-20T08:57:07;9.05;;;4.90;;
27213;SDS011;14723;55.814;37.460;2022-08-20T09:00:17;9.32;;;4.22;;
27213;SDS011;14723;55.814;37.460;2022-08-20T09:03:24;9.35;;;4.63;;
27213;SDS011;14723;55.814;37.460;2022-08-20T09:06:30;9.13;;;4.45;;
27213;SDS011;14723;55.814;37.460;2022-08-20T09:09:36;12.75;;;4.38;;
27213;SDS011;14723;55.814;37.460;2022-08-20T09:12:42;11.43;;;4.80;;
27213;SDS011;14723;55.814;37.460;2022-08-20T09:15:51;16.80;;;5.57;;
27213;SDS011;14723;55.814;37.460;2022-08-20T09:18:56;12.40;;;4.80;;
27213;SDS011;14723;55.814;37.460;2022-08-20T09:22:05;15.75;;;4.90;;
27213;SDS011;14723;55.814;37.460;2022-08-20T09:25:10;13.07;;;5.35;;
27213;SDS011;14723;55.814;37.460;2022-08-20T09:28:15;23.38;;;4.63;;
27213;SDS011;14723;55.814;37.460;2022-08-20T09:31:24;12.35;;;5.05;;
27213;SDS011;14723;55.814;37.460;2022-08-20T09:34:33;19.75;;;5.82;;
27213;SDS011;14723;55.814;37.460;2022-08-20T09:37:38;20.85;;;5.90;;
27213;SDS011;14723;55.814;37.460;2022-08-20T09:40:44;13.38;;;5.45;;
27213;SDS011;14723;55.814;37.460;2022-08-20T09:43:49;15.82;;;5.82;;
27213;SDS011;14723;55.814;37.460;2022-08-20T09:46:58;15.50;;;6.63;;
27213;SDS011;14723;55.814;37.460;2022-08-20T09:50:03;12.55;;;6.90;;
27213;SDS011;14723;55.814;37.460;2022-08-20T09:53:09;22.15;;;7.55;;
27213;SDS011;14723;55.814;37.460;2022-08-20T09:56:14;21.40;;;7.63;;
27213;SDS011;14723;55.814;37.460;2022-08-20T09:59:20;20.13;;;8.82;;
27213;SDS011;14723;55.814;37.460;2022-08-20T10:02:28;19.85;;;9.15;;
27213;SDS011;14723;55.814;37.460;2022-08-20T10:05:33;21.58;;;9.23;;
27213;SDS011;14723;55.814;37.460;2022-08-20T10:08:39;24.52;;;9.50;;
27213;SDS011;14723;55.814;37.460;2022-08-20T10:11:44;22.98;;;10.65;;
27213;SDS011;14723;55.814;37.460;2022-08-20T10:14:49;18.95;;;9.70;;
27213;SDS011;14723;55.814;37.460;2022-08-20T10:18:04;18.00;;;10.70;;
27213;SDS011;14723;55.814;37.460;2022-08-20T10:21:13;23.02;;;11.43;;
27213;SDS011;14723;55.814;37.460;2022-08-20T10:24:18;21.10;;;11.50;;
27213;SDS011;14723;55.814;37.460;2022-08-20T10:27:24;16.83;;;11.57;;
27213;SDS011;14723;55.814;37.460;2022-08-20T10:30:29;27.27;;;11.68;;
27213;SDS011;14723;55.814;37.460;2022-08-20T10:33:37;25.90;;;11.80;;
27213;SDS011;14723;55.814;37.460;2022-08-20T10:36:42;23.23;;;12.65;;
27213;SDS011;14723;55.814;37.460;2022-08-20T10:39:48;20.00;;;12.38;;
27213;SDS011;14723;55.814;37.460;2022-08-20T10:42:54;18.02;;;10.82;;
27213;SDS011;14723;55.814;37.460;2022-08-20T10:45:59;20.55;;;12.40;;
27213;SDS011;14723;55.814;37.460;2022-08-20T10:49:07;19.85;;;12.77;;
27213;SDS011;14723;55.814;37.460;2022-08-20T10:52:12;20.05;;;11.50;;
27213;SDS011;14723;55.814;37.460;2022-08-20T10:55:17;22.77;;;11.48;;
27213;SDS011;14723;55.814;37.460;2022-08-20T10:58:23;17.20;;;10.23;;
27213;SDS011;14723;55.814;37.460;2022-08-20T11:01:40;19.13;;;10.38;;
27213;SDS011;14723;55.814;37.460;2022-08-20T11:04:48;15.73;;;9.75;;
27213;SDS011;14723;55.814;37.460;2022-08-20T11:07:54;24.67;;;11.40;;
27213;SDS011;14723;55.814;37.460;2022-08-20T11:11:00;21.15;;;9.73;;
27213;SDS011;14723;55.814;37.460;2022-08-20T11:14:06;22.60;;;9.10;;
27213;SDS011;14723;55.814;37.460;2022-08-20T11:17:11;22.63;;;9.60;;
27213;SDS011;14723;55.814;37.460;2022-08-20T11:20:19;21.08;;;9.90;;
27213;SDS011;14723;55.814;37.460;2022-08-20T11:23:26;22.52;;;9.75;;
27213;SDS011;14723;55.814;37.460;2022-08-20T11:26:31;24.35;;;10.32;;
27213;SDS011;14723;55.814;37.460;2022-08-20T11:29:37;22.02;;;9.48;;
27213;SDS011;14723;55.814;37.460;2022-08-20T11:32:44;20.83;;;10.83;;
27213;SDS011;14723;55.814;37.460;2022-08-20T11:35:52;25.77;;;9.90;;
27213;SDS011;14723;55.814;37.460;2022-08-20T11:38:57;24.55;;;10.10;;
27213;SDS011;14723;55.814;37.460;2022-08-20T11:42:02;14.57;;;7.63;;
27213;SDS011;14723;55.814;37.460;2022-08-20T11:45:08;15.02;;;8.18;;
27213;SDS011;14723;55.814;37.460;2022-08-20T11:48:14;15.65;;;7.28;;
27213;SDS011;14723;55.814;37.460;2022-08-20T11:51:22;12.68;;;6.55;;
27213;SDS011;14723;55.814;37.460;2022-08-20T11:54:27;14.60;;;6.65;;
27213;SDS011;14723;55.814;37.460;2022-08-20T11:57:34;16.38;;;6.53;;
27213;SDS011;14723;55.814;37.460;2022-08-20T12:00:40;20.55;;;6.50;;
27213;SDS011;14723;55.814;37.460;2022-08-20T12:03:45;12.88;;;5.72;;
27213;SDS011;14723;55.814;37.460;2022-08-20T12:06:53;15.32;;;7.22;;
27213;SDS011;14723;55.814;37.460;2022-08-20T12:10:02;15.27;;;5.75;;
27213;SDS011;14723;55.814;37.460;2022-08-20T12:13:08;16.67;;;5.57;;
27213;SDS011;14723;55.814;37.460;2022-08-20T12:16:13;15.07;;;5.50;;
27213;SDS011;14723;55.814;37.460;2022-08-20T12:19:18;20.42;;;5.75;;
27213;SDS011;14723;55.814;37.460;2022-08-20T12:22:25;12.27;;;4.93;;
27213;SDS011;14723;55.814;37.460;2022-08-20T12:25:31;13.85;;;4.55;;
27213;SDS011;14723;55.814;37.460;2022-08-20T12:28:36;13.45;;;4.60;;
27213;SDS011;14723;55.814;37.460;2022-08-20T12:31:41;12.00;;;5.40;;
27213;SDS011;14723;55.814;37.460;2022-08-20T12:34:47;15.48;;;4.63;;
27213;SDS011;14723;55.814;37.460;2022-08-20T12:37:55;13.40;;;5.03;;
27213;SDS011;14723;55.814;37.460;2022-08-20T12:41:00;14.52;;;4.43;;
27213;SDS011;14723;55.814;37.460;2022-08-20T12:44:05;16.17;;;5.07;;
27213;SDS011;14723;55.814;37.460;2022-08-20T12:47:14;10.95;;;4.28;;
27213;SDS011;14723;55.814;37.460;2022-08-20T12:50:21;13.05;;;4.15;;
27213;SDS011;14723;55.814;37.460;2022-08-20T12:53:34;69.35;;;10.35;;
27213;SDS011;14723;55.814;37.460;2022-08-20T12:56:39;20.75;;;5.88;;
27213;SDS011;14723;55.814;37.460;2022-08-20T12:59:45;37.03;;;6.57;;
27213;SDS011;14723;55.814;37.460;2022-08-20T13:02:50;13.50;;;4.70;;
27213;SDS011;14723;55.814;37.460;2022-08-20T13:05:57;9.93;;;4.47;;
27213;SDS011;14723;55.814;37.460;2022-08-20T13:09:07;20.92;;;4.63;;
27213;SDS011;14723;55.814;37.460;2022-08-20T13:12:12;8.63;;;4.72;;
27213;SDS011;14723;55.814;37.460;2022-08-20T13:15:18;15.10;;;4.38;;
27213;SDS011;14723;55.814;37.460;2022-08-20T13:18:23;13.18;;;4.80;;
27213;SDS011;14723;55.814;37.460;2022-08-20T13:21:28;14.90;;;5.07;;
27213;SDS011;14723;55.814;37.460;2022-08-20T13:24:36;12.25;;;4.03;;
27213;SDS011;14723;55.814;37.460;2022-08-20T13:27:41;10.80;;;4.57;;
27213;SDS011;14723;55.814;37.460;2022-08-20T13:30:47;14.25;;;4.82;;
27213;SDS011;14723;55.814;37.460;2022-08-20T13:33:52;17.38;;;5.07;;
27213;SDS011;14723;55.814;37.460;2022-08-20T13:36:57;17.25;;;5.70;;
27213;SDS011;14723;55.814;37.460;2022-08-20T13:40:06;12.75;;;5.22;;
27213;SDS011;14723;55.814;37.460;2022-08-20T13:43:11;12.80;;;5.45;;
27213;SDS011;14723;55.814;37.460;2022-08-20T13:46:17;29.98;;;8.40;;
27213;SDS011;14723;55.814;37.460;2022-08-20T13:49:22;40.80;;;8.55;;
27213;SDS011;14723;55.814;37.460;2022-08-20T13:52:34;15.32;;;7.53;;
27213;SDS011;14723;55.814;37.460;2022-08-20T13:55:42;19.45;;;7.45;;
27213;SDS011;14723;55.814;37.460;2022-08-20T13:58:47;23.10;;;7.90;;
27213;SDS011;14723;55.814;37.460;2022-08-20T14:01:53;26.75;;;9.85;;
27213;SDS011;14723;55.814;37.460;2022-08-20T14:04:59;17.60;;;8.25;;
27213;SDS011;14723;55.814;37.460;2022-08-20T14:08:04;16.83;;;8.77;;
27213;SDS011;14723;55.814;37.460;2022-08-20T14:11:13;16.98;;;9.50;;
27213;SDS011;14723;55.814;37.460;2022-08-20T14:14:18;17.92;;;8.75;;
27213;SDS011;14723;55.814;37.460;2022-08-20T14:17:24;22.63;;;10.75;;
27213;SDS011;14723;55.814;37.460;2022-08-20T14:20:31;21.98;;;9.77;;
27213;SDS011;14723;55.814;37.460;2022-08-20T14:23:39;15.30;;;9.52;;
27213;SDS011;14723;55.814;37.460;2022-08-20T14:26:47;16.27;;;8.95;;
27213;SDS011;14723;55.814;37.460;2022-08-20T14:29:52;25.10;;;9.75;;
27213;SDS011;14723;55.814;37.460;2022-08-20T14:32:57;17.95;;;9.38;;
27213;SDS011;14723;55.814;37.460;2022-08-20T14:36:03;20.33;;;8.18;;
27213;SDS011;14723;55.814;37.460;2022-08-20T14:39:08;23.63;;;8.68;;
27213;SDS011;14723;55.814;37.460;2022-08-20T14:42:19;18.42;;;8.60;;
27213;SDS011;14723;55.814;37.460;2022-08-20T14:45:25;21.08;;;7.97;;
27213;SDS011;14723;55.814;37.460;2022-08-20T14:48:30;26.67;;;7.32;;
27213;SDS011;14723;55.814;37.460;2022-08-20T14:51:35;15.43;;;7.10;;
27213;SDS011;14723;55.814;37.460;2022-08-20T14:54:41;21.95;;;6.43;;
27213;SDS011;14723;55.814;37.460;2022-08-20T14:57:50;18.63;;;6.35;;
27213;SDS011;14723;55.814;37.460;2022-08-20T15:00:55;18.15;;;5.90;;
27213;SDS011;14723;55.814;37.460;2022-08-20T15:04:00;12.10;;;5.13;;
27213;SDS011;14723;55.814;37.460;2022-08-20T15:07:06;13.27;;;5.22;;
27213;SDS011;14723;55.814;37.460;2022-08-20T15:10:16;11.65;;;5.13;;
27213;SDS011;14723;55.814;37.460;2022-08-20T15:13:24;15.27;;;4.63;;
27213;SDS011;14723;55.814;37.460;2022-08-20T15:16:29;15.13;;;4.95;;
27213;SDS011;14723;55.814;37.460;2022-08-20T15:19:34;12.25;;;4.78;;
27213;SDS011;14723;55.814;37.460;2022-08-20T15:22:40;17.88;;;4.50;;
27213;SDS011;14723;55.814;37.460;2022-08-20T15:25:45;14.85;;;4.80;;
27213;SDS011;14723;55.814;37.460;2022-08-20T15:28:53;13.10;;;6.70;;
27213;SDS011;14723;55.814;37.460;2022-08-20T15:31:58;7.60;;;3.78;;
27213;SDS011;14723;55.814;37.460;2022-08-20T15:35:04;14.02;;;4.00;;
27213;SDS011;14723;55.814;37.460;2022-08-20T15:38:11;25.65;;;4.50;;
27213;SDS011;14723;55.814;37.460;2022-08-20T15:41:16;29.45;;;5.53;;
27213;SDS011;14723;55.814;37.460;2022-08-20T15:44:24;11.95;;;4.55;;
27213;SDS011;14723;55.814;37.460;2022-08-20T15:47:30;11.80;;;3.67;;
27213;SDS011;14723;55.814;37.460;2022-08-20T15:53:45;18.73;;;4.63;;
27213;SDS011;14723;55.814;37.460;2022-08-20T15:56:55;13.82;;;4.05;;
27213;SDS011;14723;55.814;37.460;2022-08-20T16:00:07;18.45;;;4.10;;
27213;SDS011;14723;55.814;37.460;2022-08-20T16:03:21;11.50;;;4.45;;
27213;SDS011;14723;55.814;37.460;2022-08-20T16:06:29;24.42;;;4.35;;
27213;SDS011;14723;55.814;37.460;2022-08-20T16:09:42;16.40;;;6.15;;
27213;SDS011;14723;55.814;37.460;2022-08-20T16:12:53;36.80;;;22.02;;
27213;SDS011;14723;55.814;37.460;2022-08-20T16:16:03;8.82;;;4.97;;
27213;SDS011;14723;55.814;37.460;2022-08-20T16:19:10;19.50;;;7.07;;
27213;SDS011;14723;55.814;37.460;2022-08-20T16:22:16;16.77;;;4.72;;
27213;SDS011;14723;55.814;37.460;2022-08-20T16:25:22;15.73;;;3.83;;
27213;SDS011;14723;55.814;37.460;2022-08-20T16:28:31;24.92;;;5.00;;
27213;SDS011;14723;55.814;37.460;2022-08-20T16:31:43;15.48;;;3.92;;
27213;SDS011;14723;55.814;37.460;2022-08-20T16:34:50;11.57;;;4.00;;
27213;SDS011;14723;55.814;37.460;2022-08-20T16:38:04;14.45;;;4.53;;
27213;SDS011;14723;55.814;37.460;2022-08-20T16:41:11;26.40;;;3.92;;
27213;SDS011;14723;55.814;37.460;2022-08-20T16:44:20;7.75;;;3.70;;
27213;SDS011;14723;55.814;37.460;2022-08-20T16:47:33;13.25;;;4.28;;
27213;SDS011;14723;55.814;37.460;2022-08-20T16:50:39;11.55;;;4.07;;
27213;SDS011;14723;55.814;37.460;2022-08-20T16:53:45;26.45;;;5.75;;
27213;SDS011;14723;55.814;37.460;2022-08-20T16:56:56;12.73;;;4.10;;
27213;SDS011;14723;55.814;37.460;2022-08-20T17:00:06;14.45;;;4.00;;
27213;SDS011;14723;55.814;37.460;2022-08-20T17:03:21;10.40;;;3.83;;
27213;SDS011;14723;55.814;37.460;2022-08-20T17:06:42;10.73;;;3.38;;
27213;SDS011;14723;55.814;37.460;2022-08-20T17:09:48;16.40;;;4.55;;
27213;SDS011;14723;55.814;37.460;2022-08-20T17:12:54;13.60;;;4.13;;
27213;SDS011;14723;55.814;37.460;2022-08-20T17:16:02;11.73;;;4.20;;
27213;SDS011;14723;55.814;37.460;2022-08-20T17:19:26;8.80;;;3.47;;
27213;SDS011;14723;55.814;37.460;2022-08-20T17:22:39;14.68;;;3.67;;
27213;SDS011;14723;55.814;37.460;2022-08-20T17:25:45;11.45;;;4.97;;
27213;SDS011;14723;55.814;37.460;2022-08-20T17:28:58;10.55;;;3.78;;
27213;SDS011;14723;55.814;37.460;2022-08-20T17:32:08;12.57;;;4.03;;
27213;SDS011;14723;55.814;37.460;2022-08-20T17:35:23;18.13;;;4.38;;
27213;SDS011;14723;55.814;37.460;2022-08-20T17:38:31;13.60;;;3.88;;
27213;SDS011;14723;55.814;37.460;2022-08-20T17:41:37;10.88;;;4.10;;
27213;SDS011;14723;55.814;37.460;2022-08-20T17:44:51;10.82;;;3.90;;
27213;SDS011;14723;55.814;37.460;2022-08-20T17:47:57;14.25;;;4.80;;
27213;SDS011;14723;55.814;37.460;2022-08-20T17:51:07;7.60;;;3.75;;
27213;SDS011;14723;55.814;37.460;2022-08-20T17:54:19;13.02;;;3.35;;
27213;SDS011;14723;55.814;37.460;2022-08-20T17:57:25;12.60;;;5.68;;
27213;SDS011;14723;55.814;37.460;2022-08-20T18:00:34;10.85;;;4.15;;
27213;SDS011;14723;55.814;37.460;2022-08-20T18:03:39;22.27;;;4.07;;
27213;SDS011;14723;55.814;37.460;2022-08-20T18:06:49;11.65;;;3.63;;
27213;SDS011;14723;55.814;37.460;2022-08-20T18:09:56;12.95;;;4.38;;
27213;SDS011;14723;55.814;37.460;2022-08-20T18:13:03;16.83;;;3.53;;
27213;SDS011;14723;55.814;37.460;2022-08-20T18:16:13;10.80;;;3.97;;
27213;SDS011;14723;55.814;37.460;2022-08-20T18:19:21;17.67;;;4.10;;